Time;durP1;ratioP1;P1;durP2;ratioP2;P2;SDS_P1;SDS_P2;PMS_P1;PMS_P2;Temp;Humidity;BMP_temperature;BMP_pressure;BME280_temperature;BME280_humidity;BME280_pressure;Samples;Min_cycle;Max_cycle;Signal;HPM_P1;HPM_P2
2022/10/11 00:01:35;;;;;;;21.88;17.40;;;;;;;;;;10096970;28;20136;-68
2022/10/11 00:06:29;;;;;;;21.73;16.60;;;;;;;;;;10093435;28;20045;-69
2022/10/11 00:11:22;;;;;;;22.33;17.10;;;;;;;;;;10105157;28;20053;-68
2022/10/11 00:16:16;;;;;;;22.00;17.42;;;;;;;;;;10101408;28;20060;-68
2022/10/11 00:21:11;;;;;;;25.90;17.77;;;;;;;;;;10109523;28;20057;-68
2022/10/11 00:26:07;;;;;;;23.02;16.58;;;;;;;;;;10103634;28;20095;-68
2022/10/11 00:31:03;;;;;;;24.23;17.35;;;;;;;;;;10101072;28;20530;-68
2022/10/11 00:35:59;;;;;;;22.13;17.35;;;;;;;;;;10098423;28;20053;-68
2022/10/11 00:40:53;;;;;;;20.85;17.45;;;;;;;;;;10092663;28;20132;-68
2022/10/11 00:45:59;;;;;;;22.27;16.58;;;;;;;;;;10097395;28;20053;-68
2022/10/11 00:50:54;;;;;;;20.70;17.00;;;;;;;;;;10103762;28;20508;-68
2022/10/11 00:55:58;;;;;;;24.27;15.38;;;;;;;;;;10099245;28;20119;-68
2022/10/11 01:00:53;;;;;;;22.30;16.27;;;;;;;;;;10098075;28;20056;-68
2022/10/11 01:05:47;;;;;;;20.33;16.00;;;;;;;;;;10092451;28;20131;-68
2022/10/11 01:10:40;;;;;;;21.73;14.93;;;;;;;;;;10098114;28;20049;-68
2022/10/11 01:15:41;;;;;;;22.70;16.15;;;;;;;;;;10105943;28;20053;-68
2022/10/11 01:20:52;;;;;;;26.60;15.73;;;;;;;;;;10107551;28;20492;-68
2022/10/11 01:26:11;;;;;;;22.52;16.23;;;;;;;;;;10093325;28;20052;-69
2022/10/11 01:31:28;;;;;;;24.50;16.08;;;;;;;;;;10104756;28;20459;-69
2022/10/11 01:37:00;;;;;;;22.17;17.30;;;;;;;;;;10093149;28;20079;-68
2022/10/11 01:41:55;;;;;;;20.92;16.65;;;;;;;;;;10103624;28;20198;-69
2022/10/11 01:47:09;;;;;;;25.08;17.30;;;;;;;;;;10100664;28;20126;-68
2022/10/11 01:52:06;;;;;;;22.48;18.48;;;;;;;;;;10101987;28;20056;-68
2022/10/11 01:57:27;;;;;;;31.77;17.20;;;;;;;;;;10092741;28;20060;-69
2022/10/11 02:02:26;;;;;;;25.88;18.95;;;;;;;;;;10102874;28;20053;-69
2022/10/11 02:07:44;;;;;;;24.85;18.17;;;;;;;;;;10095005;28;20053;-68
2022/10/11 02:12:42;;;;;;;25.05;19.55;;;;;;;;;;10100332;28;20053;-68
2022/10/11 02:17:45;;;;;;;28.00;19.73;;;;;;;;;;10113449;28;20049;-68
2022/10/11 02:22:40;;;;;;;27.00;20.15;;;;;;;;;;10102302;28;20473;-69
2022/10/11 02:27:35;;;;;;;28.10;19.48;;;;;;;;;;10097665;28;20068;-67
2022/10/11 02:32:28;;;;;;;22.83;16.73;;;;;;;;;;10120260;28;20451;-68
2022/10/11 02:37:31;;;;;;;25.50;17.88;;;;;;;;;;10120428;28;20060;-67
2022/10/11 02:42:28;;;;;;;26.42;18.15;;;;;;;;;;10097333;28;20459;-67
2022/10/11 02:47:21;;;;;;;24.70;19.25;;;;;;;;;;10103695;28;20412;-67
2022/10/11 02:52:14;;;;;;;24.02;18.67;;;;;;;;;;10101175;28;20049;-67
2022/10/11 02:57:08;;;;;;;23.00;18.58;;;;;;;;;;10105168;28;20120;-68
2022/10/11 03:02:02;;;;;;;22.38;17.83;;;;;;;;;;10105382;28;20136;-67
2022/10/11 03:06:56;;;;;;;27.83;19.13;;;;;;;;;;10112080;28;20061;-68
2022/10/11 03:11:50;;;;;;;25.85;18.75;;;;;;;;;;10109143;28;20045;-68
2022/10/11 03:16:44;;;;;;;24.88;20.90;;;;;;;;;;10107381;28;20080;-67
2022/10/11 03:21:38;;;;;;;27.52;20.70;;;;;;;;;;10110292;28;20115;-68
2022/10/11 03:26:32;;;;;;;35.72;20.88;;;;;;;;;;10094977;28;20083;-68
2022/10/11 03:31:25;;;;;;;27.13;19.63;;;;;;;;;;10108583;28;20055;-68
2022/10/11 03:36:20;;;;;;;29.40;20.30;;;;;;;;;;10098608;28;20507;-68
2022/10/11 03:41:13;;;;;;;26.98;20.38;;;;;;;;;;10103279;28;20136;-68
2022/10/11 03:46:06;;;;;;;25.98;20.42;;;;;;;;;;10110832;28;20075;-67
2022/10/11 03:51:01;;;;;;;25.42;20.35;;;;;;;;;;10098752;28;20102;-68
2022/10/11 03:55:55;;;;;;;27.08;21.20;;;;;;;;;;10099608;28;20447;-69
2022/10/11 04:00:49;;;;;;;27.73;19.73;;;;;;;;;;10102237;28;20085;-68
2022/10/11 04:05:43;;;;;;;28.65;21.17;;;;;;;;;;10101835;28;20048;-68
2022/10/11 04:10:36;;;;;;;33.10;22.10;;;;;;;;;;10107806;28;20069;-68
2022/10/11 04:15:30;;;;;;;30.50;20.92;;;;;;;;;;10102456;28;20048;-68
2022/10/11 04:20:24;;;;;;;32.20;19.77;;;;;;;;;;10104539;28;20056;-68
2022/10/11 04:25:17;;;;;;;27.48;20.38;;;;;;;;;;10100772;28;20055;-68
2022/10/11 04:30:11;;;;;;;32.80;21.30;;;;;;;;;;10101313;28;20052;-68
2022/10/11 04:35:05;;;;;;;31.63;21.90;;;;;;;;;;10095573;28;20049;-67
2022/10/11 04:39:58;;;;;;;27.20;20.92;;;;;;;;;;10082483;28;20049;-68
2022/10/11 04:44:52;;;;;;;39.33;22.25;;;;;;;;;;10106818;28;20059;-68
2022/10/11 04:49:45;;;;;;;33.58;22.50;;;;;;;;;;10098898;28;20554;-67
2022/10/11 04:54:38;;;;;;;27.70;19.70;;;;;;;;;;10112548;28;20070;-68
2022/10/11 04:59:32;;;;;;;30.92;21.35;;;;;;;;;;10107093;28;20411;-67
2022/10/11 05:04:27;;;;;;;32.47;22.52;;;;;;;;;;10103090;28;20091;-67
2022/10/11 05:09:20;;;;;;;32.45;19.60;;;;;;;;;;10099871;28;20128;-69
2022/10/11 05:14:14;;;;;;;29.35;20.65;;;;;;;;;;10102255;28;20073;-68
2022/10/11 05:19:08;;;;;;;30.80;21.48;;;;;;;;;;10093536;28;20080;-68
2022/10/11 05:24:02;;;;;;;31.55;20.42;;;;;;;;;;10094758;28;20488;-68
2022/10/11 05:28:57;;;;;;;34.08;23.10;;;;;;;;;;10094003;28;20431;-68
2022/10/11 05:33:51;;;;;;;30.98;23.13;;;;;;;;;;10092481;28;20468;-69
2022/10/11 05:38:44;;;;;;;36.75;23.85;;;;;;;;;;10095843;28;20404;-69
2022/10/11 05:43:38;;;;;;;35.25;22.80;;;;;;;;;;10097978;28;20128;-69
2022/10/11 05:48:32;;;;;;;30.63;22.48;;;;;;;;;;10096941;28;20061;-68
2022/10/11 05:53:26;;;;;;;35.63;21.92;;;;;;;;;;10098661;28;20381;-67
2022/10/11 05:58:19;;;;;;;40.00;21.98;;;;;;;;;;10098742;28;20663;-67
2022/10/11 06:03:13;;;;;;;35.63;23.40;;;;;;;;;;10101430;28;20739;-68
2022/10/11 06:08:09;;;;;;;32.97;22.67;;;;;;;;;;10092541;28;20459;-68
2022/10/11 06:13:04;;;;;;;27.70;20.15;;;;;;;;;;10094929;28;20056;-68
2022/10/11 06:17:58;;;;;;;37.40;24.50;;;;;;;;;;10097337;28;20101;-68
2022/10/11 06:22:51;;;;;;;35.15;21.33;;;;;;;;;;10079447;28;20080;-68
2022/10/11 06:27:45;;;;;;;37.30;24.50;;;;;;;;;;10086174;28;20053;-68
2022/10/11 06:32:39;;;;;;;33.80;23.33;;;;;;;;;;10088951;28;20126;-68
2022/10/11 06:37:34;;;;;;;38.45;24.63;;;;;;;;;;10095221;28;20053;-67
2022/10/11 06:42:28;;;;;;;44.67;23.90;;;;;;;;;;10094119;28;20091;-68
2022/10/11 06:47:22;;;;;;;36.33;24.15;;;;;;;;;;10092502;28;20049;-67
2022/10/11 06:52:16;;;;;;;48.97;25.25;;;;;;;;;;10096430;28;20104;-68
2022/10/11 06:57:09;;;;;;;32.95;23.73;;;;;;;;;;10101440;28;20414;-68
2022/10/11 07:02:03;;;;;;;35.38;23.67;;;;;;;;;;10097926;28;20083;-69
2022/10/11 07:06:58;;;;;;;36.08;24.48;;;;;;;;;;10108378;28;20049;-71
2022/10/11 07:11:52;;;;;;;30.90;21.67;;;;;;;;;;10098814;28;20550;-69
2022/10/11 07:16:46;;;;;;;34.75;22.92;;;;;;;;;;10103020;28;20594;-72
2022/10/11 07:21:41;;;;;;;33.35;22.73;;;;;;;;;;10095517;28;20414;-70
2022/10/11 07:26:35;;;;;;;38.92;22.02;;;;;;;;;;10097809;28;20060;-70
2022/10/11 07:31:31;;;;;;;34.08;20.85;;;;;;;;;;10096322;28;20073;-69
2022/10/11 07:36:25;;;;;;;29.35;23.23;;;;;;;;;;10092760;28;20567;-70
2022/10/11 07:41:19;;;;;;;37.15;23.05;;;;;;;;;;10097168;28;20484;-71
2022/10/11 07:46:13;;;;;;;32.60;21.15;;;;;;;;;;10109805;28;20053;-70
2022/10/11 07:51:10;;;;;;;36.28;17.92;;;;;;;;;;10096617;28;20518;-70
2022/10/11 07:56:04;;;;;;;22.48;17.05;;;;;;;;;;10099885;28;20064;-70
2022/10/11 08:00:58;;;;;;;20.98;17.05;;;;;;;;;;10097851;28;20523;-70
2022/10/11 08:05:52;;;;;;;17.20;14.93;;;;;;;;;;10101246;28;20053;-70
2022/10/11 08:10:47;;;;;;;23.27;15.70;;;;;;;;;;10097618;28;20045;-70
2022/10/11 08:15:41;;;;;;;22.60;14.70;;;;;;;;;;10085580;28;20083;-70
2022/10/11 08:20:38;;;;;;;16.75;15.02;;;;;;;;;;10082712;28;20049;-70
2022/10/11 08:25:36;;;;;;;24.40;15.65;;;;;;;;;;10085506;28;20052;-71
2022/10/11 08:30:30;;;;;;;18.65;15.70;;;;;;;;;;10096888;28;20049;-71
2022/10/11 08:35:23;;;;;;;19.23;14.68;;;;;;;;;;10096987;28;20052;-70
2022/10/11 08:40:20;;;;;;;21.30;15.77;;;;;;;;;;10090774;28;20481;-70
2022/10/11 08:45:48;;;;;;;22.13;15.57;;;;;;;;;;10103091;28;20052;-70
2022/10/11 08:50:45;;;;;;;22.63;17.83;;;;;;;;;;10115474;28;20504;-71
2022/10/11 08:55:48;;;;;;;27.92;18.90;;;;;;;;;;10094012;28;20135;-70
2022/10/11 09:00:42;;;;;;;22.30;19.88;;;;;;;;;;10095163;28;20064;-70
2022/10/11 09:05:49;;;;;;;22.85;18.27;;;;;;;;;;10098591;28;20886;-69
2022/10/11 09:11:09;;;;;;;16.45;14.40;;;;;;;;;;10090821;28;20049;-70
2022/10/11 09:16:22;;;;;;;21.80;16.85;;;;;;;;;;10089409;28;20504;-71
2022/10/11 09:21:41;;;;;;;17.85;14.63;;;;;;;;;;10097989;28;20057;-70
2022/10/11 09:26:56;;;;;;;19.48;15.25;;;;;;;;;;10088807;28;20063;-69
2022/10/11 09:31:53;;;;;;;18.08;14.30;;;;;;;;;;10096541;28;20033;-69
2022/10/11 09:36:56;;;;;;;19.95;13.68;;;;;;;;;;10095906;28;20076;-69
2022/10/11 09:42:06;;;;;;;22.67;14.07;;;;;;;;;;10118744;28;20129;-69
2022/10/11 09:47:00;;;;;;;18.05;13.70;;;;;;;;;;10087001;28;20077;-68
2022/10/11 09:51:57;;;;;;;21.25;14.68;;;;;;;;;;10100034;28;20044;-69
2022/10/11 09:56:51;;;;;;;17.07;14.40;;;;;;;;;;10084707;28;20103;-70
2022/10/11 10:01:44;;;;;;;20.08;14.60;;;;;;;;;;10090920;28;20057;-70
2022/10/11 10:06:39;;;;;;;16.55;14.18;;;;;;;;;;10097173;28;20045;-71
2022/10/11 10:11:36;;;;;;;18.48;15.98;;;;;;;;;;10101011;28;20049;-68
2022/10/11 10:16:32;;;;;;;19.25;14.38;;;;;;;;;;10096086;28;20076;-70
2022/10/11 10:21:34;;;;;;;17.48;14.73;;;;;;;;;;10087603;28;20095;-70
2022/10/11 10:26:30;;;;;;;17.60;15.75;;;;;;;;;;10091900;28;20053;-69
2022/10/11 10:31:26;;;;;;;17.52;13.75;;;;;;;;;;10090994;28;20615;-70
2022/10/11 10:36:26;;;;;;;16.87;14.40;;;;;;;;;;10100075;28;20040;-69
2022/10/11 10:41:20;;;;;;;24.13;16.88;;;;;;;;;;10099267;28;20302;-69
2022/10/11 10:46:34;;;;;;;19.73;15.73;;;;;;;;;;10096237;28;20077;-70
2022/10/11 10:51:34;;;;;;;19.63;14.68;;;;;;;;;;10097134;28;20053;-70
2022/10/11 10:56:32;;;;;;;18.40;13.63;;;;;;;;;;10098857;28;20045;-69
2022/10/11 11:01:31;;;;;;;21.85;14.18;;;;;;;;;;10101758;28;20102;-70
2022/10/11 11:06:36;;;;;;;16.23;11.68;;;;;;;;;;10102064;28;20049;-69
2022/10/11 11:11:49;;;;;;;25.63;13.45;;;;;;;;;;10102943;28;20049;-69
2022/10/11 11:17:14;;;;;;;22.98;12.90;;;;;;;;;;10092162;28;20081;-70
2022/10/11 11:22:13;;;;;;;15.25;13.65;;;;;;;;;;10076987;28;20049;-70
2022/10/11 11:27:17;;;;;;;17.58;13.40;;;;;;;;;;10092781;28;20057;-71
2022/10/11 11:32:22;;;;;;;15.57;13.02;;;;;;;;;;10104940;28;20063;-70
2022/10/11 11:37:26;;;;;;;16.08;12.80;;;;;;;;;;10098316;28;20052;-70
2022/10/11 11:42:35;;;;;;;14.52;11.65;;;;;;;;;;10106327;28;20128;-70
2022/10/11 11:47:34;;;;;;;16.23;12.65;;;;;;;;;;10088633;28;20110;-71
2022/10/11 11:53:03;;;;;;;16.55;14.13;;;;;;;;;;10108952;28;20080;-70
2022/10/11 11:58:10;;;;;;;17.90;12.43;;;;;;;;;;10086325;28;20052;-71
2022/10/11 12:03:23;;;;;;;16.13;12.73;;;;;;;;;;10092825;28;20053;-71
2022/10/11 12:08:29;;;;;;;19.65;14.20;;;;;;;;;;10102409;28;20056;-70
2022/10/11 12:13:27;;;;;;;18.25;14.80;;;;;;;;;;10092693;28;20731;-70
2022/10/11 12:18:24;;;;;;;27.63;14.75;;;;;;;;;;10095822;28;20085;-69
2022/10/11 12:23:40;;;;;;;18.67;14.35;;;;;;;;;;10098585;28;20437;-70
2022/10/11 12:28:37;;;;;;;19.27;15.43;;;;;;;;;;10105728;28;20512;-71
2022/10/11 12:33:31;;;;;;;16.92;13.85;;;;;;;;;;10105578;28;20462;-70
2022/10/11 12:38:29;;;;;;;22.10;15.27;;;;;;;;;;10095764;28;20056;-70
2022/10/11 12:43:32;;;;;;;13.52;11.88;;;;;;;;;;10089851;28;20466;-70
2022/10/11 12:48:46;;;;;;;18.17;12.68;;;;;;;;;;10095175;28;20057;-71
2022/10/11 12:53:57;;;;;;;14.43;12.18;;;;;;;;;;10096229;28;20527;-71
2022/10/11 12:59:18;;;;;;;19.20;14.45;;;;;;;;;;10097192;28;20040;-70
2022/10/11 13:04:12;;;;;;;15.10;13.55;;;;;;;;;;10097138;28;20045;-70
2022/10/11 13:09:09;;;;;;;14.23;11.50;;;;;;;;;;10097224;28;20055;-70
2022/10/11 13:14:23;;;;;;;15.77;11.65;;;;;;;;;;10094835;28;20049;-70
2022/10/11 13:19:20;;;;;;;15.80;12.77;;;;;;;;;;10098874;28;20053;-70
2022/10/11 13:24:15;;;;;;;;;;;;;;;;;;10100015;28;20044;-70
2022/10/11 13:29:15;;;;;;;18.00;11.07;;;;;;;;;;10087123;28;19921;-69
2022/10/11 13:34:10;;;;;;;14.77;13.15;;;;;;;;;;10099326;28;20057;-70
2022/10/11 13:39:04;;;;;;;15.10;12.10;;;;;;;;;;10091980;28;20053;-69
2022/10/11 13:43:58;;;;;;;26.55;14.60;;;;;;;;;;10096723;28;20056;-69
2022/10/11 13:49:03;;;;;;;14.43;12.23;;;;;;;;;;10098782;28;20056;-69
2022/10/11 13:54:05;;;;;;;20.55;11.80;;;;;;;;;;10111633;28;20454;-68
2022/10/11 13:59:04;;;;;;;15.00;11.27;;;;;;;;;;10114191;28;20049;-68
2022/10/11 14:04:00;;;;;;;13.75;10.85;;;;;;;;;;10114907;28;20131;-68
2022/10/11 14:08:55;;;;;;;15.55;11.10;;;;;;;;;;10109088;28;20052;-68
2022/10/11 14:13:49;;;;;;;16.67;9.75;;;;;;;;;;10119266;28;20045;-68
2022/10/11 14:19:00;;;;;;;12.55;10.02;;;;;;;;;;10126582;28;20053;-68
2022/10/11 14:24:11;;;;;;;14.10;9.32;;;;;;;;;;10126844;28;20045;-69
2022/10/11 14:29:12;;;;;;;14.68;9.90;;;;;;;;;;10109532;28;20057;-68
2022/10/11 14:34:07;;;;;;;12.63;11.32;;;;;;;;;;10113491;28;20071;-68
2022/10/11 14:39:00;;;;;;;17.15;10.73;;;;;;;;;;10128166;28;20407;-68
2022/10/11 14:43:56;;;;;;;20.60;11.07;;;;;;;;;;10123978;28;20056;-68
2022/10/11 14:48:50;;;;;;;18.40;11.38;;;;;;;;;;10109399;28;20053;-68
2022/10/11 14:53:48;;;;;;;16.55;10.55;;;;;;;;;;10111774;28;20037;-68
2022/10/11 14:58:43;;;;;;;11.05;9.65;;;;;;;;;;10104855;28;20045;-68
2022/10/11 15:03:37;;;;;;;16.30;10.45;;;;;;;;;;10111857;28;20045;-68
2022/10/11 15:08:31;;;;;;;15.70;11.00;;;;;;;;;;10111313;28;20124;-68
2022/10/11 15:13:24;;;;;;;16.38;12.00;;;;;;;;;;10111552;28;20194;-68
2022/10/11 15:18:20;;;;;;;12.15;8.77;;;;;;;;;;10117802;28;20124;-68
2022/10/11 15:23:14;;;;;;;20.65;10.75;;;;;;;;;;10127324;28;20045;-67
2022/10/11 15:28:07;;;;;;;17.13;11.77;;;;;;;;;;10133351;28;20573;-68
2022/10/11 15:33:01;;;;;;;19.50;12.25;;;;;;;;;;10117740;28;20044;-68
2022/10/11 15:37:58;;;;;;;16.27;11.95;;;;;;;;;;10124867;28;20110;-67
2022/10/11 15:42:52;;;;;;;17.83;11.35;;;;;;;;;;10130285;28;20095;-69
2022/10/11 15:47:46;;;;;;;19.02;10.77;;;;;;;;;;10095400;28;20504;-69
2022/10/11 15:52:40;;;;;;;18.98;10.85;;;;;;;;;;10100365;28;20060;-73
2022/10/11 15:57:34;;;;;;;17.70;12.00;;;;;;;;;;10096345;28;20076;-70
2022/10/11 16:02:28;;;;;;;10.98;9.88;;;;;;;;;;10087553;28;20049;-69
2022/10/11 16:07:22;;;;;;;15.30;10.27;;;;;;;;;;10098891;28;20057;-69
2022/10/11 16:12:17;;;;;;;17.88;10.20;;;;;;;;;;10094460;28;20415;-72
2022/10/11 16:17:10;;;;;;;16.88;10.95;;;;;;;;;;10092038;28;20056;-72
2022/10/11 16:22:03;;;;;;;14.40;11.50;;;;;;;;;;10116653;28;20136;-72
2022/10/11 16:26:56;;;;;;;17.20;10.23;;;;;;;;;;10100119;28;20045;-72
2022/10/11 16:31:50;;;;;;;22.08;11.05;;;;;;;;;;10100416;28;20044;-70
2022/10/11 16:36:45;;;;;;;11.13;9.50;;;;;;;;;;10101257;28;20102;-69
2022/10/11 16:41:40;;;;;;;11.43;9.63;;;;;;;;;;10096263;28;20140;-71
2022/10/11 16:46:37;;;;;;;15.65;11.52;;;;;;;;;;10101803;28;20049;-71
2022/10/11 16:51:30;;;;;;;15.88;10.25;;;;;;;;;;10095755;28;20385;-69
2022/10/11 16:56:24;;;;;;;16.20;9.52;;;;;;;;;;10103601;28;20041;-69
2022/10/11 17:01:17;;;;;;;19.08;13.80;;;;;;;;;;10105117;28;20072;-68
2022/10/11 17:06:15;;;;;;;23.50;11.45;;;;;;;;;;10102382;28;20056;-68
2022/10/11 17:11:10;;;;;;;24.33;13.03;;;;;;;;;;10101148;28;20049;-69
2022/10/11 17:16:08;;;;;;;22.35;12.55;;;;;;;;;;10105191;28;20495;-68
2022/10/11 17:21:03;;;;;;;16.80;12.45;;;;;;;;;;10096277;28;20064;-68
2022/10/11 17:25:57;;;;;;;17.02;12.30;;;;;;;;;;10088615;28;20079;-68
2022/10/11 17:30:57;;;;;;;12.02;10.82;;;;;;;;;;10087096;28;20535;-68
2022/10/11 17:35:55;;;;;;;16.40;11.60;;;;;;;;;;10102836;28;20064;-71
2022/10/11 17:40:58;;;;;;;13.82;10.60;;;;;;;;;;10101395;28;20454;-69
2022/10/11 17:46:14;;;;;;;20.52;12.13;;;;;;;;;;10097489;28;20049;-68
2022/10/11 17:51:32;;;;;;;19.88;12.40;;;;;;;;;;10101681;28;20764;-70
2022/10/11 17:56:27;;;;;;;13.20;11.90;;;;;;;;;;10098064;28;20053;-69
2022/10/11 18:01:28;;;;;;;19.35;13.55;;;;;;;;;;10097625;28;20088;-68
2022/10/11 18:06:22;;;;;;;16.75;12.80;;;;;;;;;;10097094;28;20061;-68
2022/10/11 18:11:17;;;;;;;15.75;12.30;;;;;;;;;;10100644;28;20055;-70
2022/10/11 18:16:12;;;;;;;22.25;14.55;;;;;;;;;;10101579;28;20052;-70
2022/10/11 18:21:06;;;;;;;18.70;14.35;;;;;;;;;;10102875;28;20057;-71
2022/10/11 18:26:12;;;;;;;22.63;12.75;;;;;;;;;;10103538;28;20511;-72
2022/10/11 18:31:11;;;;;;;19.77;16.45;;;;;;;;;;10098830;28;20067;-71
2022/10/11 18:36:09;;;;;;;27.77;15.15;;;;;;;;;;10101088;28;20065;-74
2022/10/11 18:41:09;;;;;;;26.13;16.08;;;;;;;;;;10091433;28;20049;-69
2022/10/11 18:46:11;;;;;;;22.35;15.25;;;;;;;;;;10101389;28;20500;-71
2022/10/11 18:51:07;;;;;;;20.45;14.82;;;;;;;;;;10104450;28;20056;-72
2022/10/11 18:56:03;;;;;;;16.33;13.80;;;;;;;;;;10106180;28;20059;-70
2022/10/11 19:01:18;;;;;;;25.73;15.55;;;;;;;;;;10113890;28;20045;-67
2022/10/11 19:06:17;;;;;;;20.67;16.35;;;;;;;;;;10114108;28;20045;-67
2022/10/11 19:11:20;;;;;;;;;;;;;;;;;;10111492;28;20045;-67
2022/10/11 19:16:15;;;;;;;24.70;16.67;;;;;;;;;;10119193;28;19960;-70
2022/10/11 19:21:11;;;;;;;20.10;15.57;;;;;;;;;;10117057;28;20135;-70
2022/10/11 19:26:12;;;;;;;18.30;14.95;;;;;;;;;;10121246;28;20058;-69
2022/10/11 19:31:06;;;;;;;18.30;16.00;;;;;;;;;;10111715;28;20044;-69
2022/10/11 19:36:03;;;;;;;20.33;15.75;;;;;;;;;;10111353;28;20060;-67
2022/10/11 19:40:59;;;;;;;20.27;14.95;;;;;;;;;;10112017;28;20060;-71
2022/10/11 19:46:05;;;;;;;17.00;15.05;;;;;;;;;;10114081;28;20102;-68
2022/10/11 19:51:04;;;;;;;19.27;13.63;;;;;;;;;;10117637;28;20074;-68
2022/10/11 19:56:05;;;;;;;16.63;14.00;;;;;;;;;;10114459;28;20036;-65
2022/10/11 20:01:00;;;;;;;21.17;16.42;;;;;;;;;;10115989;28;20458;-66
2022/10/11 20:05:54;;;;;;;23.25;17.85;;;;;;;;;;10114288;28;20070;-67
2022/10/11 20:10:47;;;;;;;21.65;17.38;;;;;;;;;;10113935;28;20130;-67
2022/10/11 20:15:41;;;;;;;22.48;17.52;;;;;;;;;;10110426;28;20088;-67
2022/10/11 20:20:34;;;;;;;20.20;16.67;;;;;;;;;;10120503;28;20048;-66
2022/10/11 20:25:28;;;;;;;23.95;16.42;;;;;;;;;;10118221;28;20144;-67
2022/10/11 20:30:22;;;;;;;19.38;14.43;;;;;;;;;;10118244;28;20057;-67
2022/10/11 20:35:17;;;;;;;18.40;15.02;;;;;;;;;;10110740;28;20064;-67
2022/10/11 20:40:13;;;;;;;21.38;15.10;;;;;;;;;;10105606;28;20049;-68
2022/10/11 20:45:08;;;;;;;20.73;15.95;;;;;;;;;;10099039;28;20650;-71
2022/10/11 20:50:02;;;;;;;24.38;17.73;;;;;;;;;;10099333;28;20053;-72
2022/10/11 20:54:56;;;;;;;23.80;18.15;;;;;;;;;;10102386;28;20132;-70
2022/10/11 20:59:49;;;;;;;23.38;18.58;;;;;;;;;;10100383;28;20128;-71
2022/10/11 21:04:44;;;;;;;24.73;19.98;;;;;;;;;;10099950;28;20052;-71
2022/10/11 21:09:38;;;;;;;24.13;18.98;;;;;;;;;;10099067;28;20539;-71
2022/10/11 21:14:33;;;;;;;24.55;19.67;;;;;;;;;;10095550;28;20044;-71
2022/10/11 21:19:28;;;;;;;20.92;18.13;;;;;;;;;;10097770;28;20056;-70
2022/10/11 21:24:23;;;;;;;21.13;16.98;;;;;;;;;;10093096;28;20177;-70
2022/10/11 21:29:17;;;;;;;25.35;20.02;;;;;;;;;;10097771;28;20080;-71
2022/10/11 21:34:11;;;;;;;20.77;17.92;;;;;;;;;;10097326;28;20050;-70
2022/10/11 21:39:04;;;;;;;22.00;18.55;;;;;;;;;;10097274;28;20196;-70
2022/10/11 21:43:58;;;;;;;21.58;19.27;;;;;;;;;;10098935;28;20098;-71
2022/10/11 21:48:52;;;;;;;20.88;18.65;;;;;;;;;;10093822;28;20407;-70
2022/10/11 21:53:46;;;;;;;27.70;20.40;;;;;;;;;;10098249;28;20044;-71
2022/10/11 21:58:40;;;;;;;22.55;20.13;;;;;;;;;;10096658;28;20385;-69
2022/10/11 22:03:33;;;;;;;25.67;19.55;;;;;;;;;;10095963;28;20049;-71
2022/10/11 22:08:27;;;;;;;25.10;19.67;;;;;;;;;;10095826;28;20542;-70
2022/10/11 22:13:20;;;;;;;29.27;19.85;;;;;;;;;;10097180;28;20820;-70
2022/10/11 22:18:14;;;;;;;22.30;19.08;;;;;;;;;;10096596;28;20048;-71
2022/10/11 22:23:08;;;;;;;27.20;21.55;;;;;;;;;;10097027;28;20053;-70
2022/10/11 22:28:04;;;;;;;27.90;21.52;;;;;;;;;;10095820;28;20093;-70
2022/10/11 22:33:00;;;;;;;26.27;22.55;;;;;;;;;;10099548;28;20055;-70
2022/10/11 22:37:54;;;;;;;28.40;24.75;;;;;;;;;;10106545;28;20061;-69
2022/10/11 22:42:48;;;;;;;28.30;22.20;;;;;;;;;;10102728;28;20056;-70
2022/10/11 22:47:42;;;;;;;29.02;25.42;;;;;;;;;;10103669;28;20044;-70
2022/10/11 22:52:36;;;;;;;50.42;26.75;;;;;;;;;;10101508;28;20099;-71
2022/10/11 22:57:30;;;;;;;31.05;24.92;;;;;;;;;;10106065;28;20056;-71
2022/10/11 23:02:24;;;;;;;28.63;24.90;;;;;;;;;;10103157;28;20042;-71
2022/10/11 23:07:18;;;;;;;29.85;24.48;;;;;;;;;;10101232;28;20033;-70
2022/10/11 23:12:13;;;;;;;27.95;23.95;;;;;;;;;;10103011;28;20072;-71
2022/10/11 23:17:07;;;;;;;33.40;23.45;;;;;;;;;;10107255;28;20686;-70
2022/10/11 23:22:00;;;;;;;27.70;22.65;;;;;;;;;;10107090;28;20080;-69
2022/10/11 23:26:54;;;;;;;23.50;20.33;;;;;;;;;;10104076;28;20049;-71
2022/10/11 23:31:49;;;;;;;28.25;21.58;;;;;;;;;;10100927;28;20044;-71
2022/10/11 23:36:43;;;;;;;23.00;19.13;;;;;;;;;;10106015;28;20044;-70
2022/10/11 23:41:37;;;;;;;20.73;17.25;;;;;;;;;;10107122;28;20142;-70
2022/10/11 23:46:31;;;;;;;24.92;17.92;;;;;;;;;;10107834;28;20053;-70
2022/10/11 23:51:25;;;;;;;25.30;20.23;;;;;;;;;;10106237;28;20094;-70
2022/10/11 23:56:19;;;;;;;22.77;19.42;;;;;;;;;;10102163;28;20130;-69
